Time;durP1;ratioP1;P1;durP2;ratioP2;P2;SDS_P1;SDS_P2;PMS_P1;PMS_P2;Temp;Humidity;BMP_temperature;BMP_pressure;BME280_temperature;BME280_humidity;BME280_pressure;Samples;Min_cycle;Max_cycle;Signal;HPM_P1;HPM_P2
2021/04/21 00:00:10;;;;;;;36.65;21.13;;;;;;;6.54;96.43;97369.00;4985551;28;20029;-84
2021/04/21 00:02:36;;;;;;;40.08;22.13;;;;;;;6.61;96.62;97380.22;4984118;28;20092;-84
2021/04/21 00:05:04;;;;;;;42.47;23.33;;;;;;;6.69;95.80;97389.53;4984097;28;20030;-84
2021/04/21 00:07:30;;;;;;;41.17;22.60;;;;;;;6.54;95.87;97358.38;5015675;28;20034;-84
2021/04/21 00:09:56;;;;;;;40.15;21.88;;;;;;;6.64;95.81;97364.13;4983950;28;20030;-84
2021/04/21 00:12:24;;;;;;;48.50;22.92;;;;;;;6.83;95.78;97381.72;4983509;28;20056;-84
2021/04/21 00:14:51;;;;;;;35.80;20.70;;;;;;;6.78;95.39;97362.50;5000767;28;20059;-84
2021/04/21 00:17:20;;;;;;;41.20;20.88;;;;;;;6.87;94.94;97377.09;4984693;28;20505;-84
2021/04/21 00:19:46;;;;;;;48.00;22.35;;;;;;;6.85;94.10;97363.91;4985261;28;20068;-84
2021/04/21 00:22:15;;;;;;;36.15;21.48;;;;;;;7.02;95.19;97381.66;4984465;28;20120;-84
2021/04/21 00:24:41;;;;;;;35.83;21.58;;;;;;;7.05;95.26;97370.88;4983607;28;20033;-84
2021/04/21 00:27:08;;;;;;;41.70;22.52;;;;;;;6.96;94.57;97358.03;4999177;28;20033;-84
2021/04/21 00:29:37;;;;;;;34.20;20.25;;;;;;;7.06;93.95;97360.16;4991712;28;20563;-84
2021/04/21 00:32:04;;;;;;;37.45;21.92;;;;;;;7.19;93.86;97372.84;5012325;28;20064;-84
2021/04/21 00:34:29;;;;;;;45.00;22.98;;;;;;;7.26;91.97;97375.06;4983894;28;20025;-84
2021/04/21 00:36:56;;;;;;;50.70;26.98;;;;;;;7.25;91.09;97369.84;4984929;28;20053;-84
2021/04/21 00:39:22;;;;;;;53.47;26.20;;;;;;;7.37;92.26;97382.53;4983311;28;20048;-79
2021/04/21 00:42:11;;;;;;;49.88;26.17;;;;;;;7.32;92.67;97379.25;4983145;28;20080;-85
2021/04/21 00:44:43;;;;;;;39.80;21.92;;;;;;;7.33;93.00;97380.94;4980082;28;20046;-84
2021/04/21 00:47:24;;;;;;;41.95;23.33;;;;;;;7.39;93.51;97393.94;4981306;28;20034;-84
2021/04/21 00:50:04;;;;;;;43.65;22.33;;;;;;;7.34;94.70;97393.31;4990397;28;20065;-84
2021/04/21 00:53:04;;;;;;;40.72;21.77;;;;;;;7.34;94.45;97402.16;4995406;28;20509;-84
2021/04/21 00:55:54;;;;;;;37.72;22.42;;;;;;;7.32;95.84;97389.88;4970419;28;20042;-84
2021/04/21 00:58:46;;;;;;;38.40;21.95;;;;;;;7.19;94.34;97396.78;4994173;28;20092;-85
2021/04/21 01:01:13;;;;;;;48.83;24.98;;;;;;;7.22;93.75;97388.63;4980070;28;20045;-84
2021/04/21 01:03:41;;;;;;;45.78;24.02;;;;;;;7.33;92.26;97391.59;4980249;28;20060;-84
2021/04/21 01:06:16;;;;;;;36.75;20.52;;;;;;;7.44;90.93;97384.81;4979599;28;20038;-85
2021/04/21 01:08:55;;;;;;;31.45;18.73;;;;;;;7.50;89.73;97392.47;4979303;28;20026;-85
2021/04/21 01:11:25;;;;;;;32.80;18.70;;;;;;;7.52;89.57;97382.59;4995151;28;20026;-84
2021/04/21 01:13:55;;;;;;;38.25;18.50;;;;;;;7.58;87.93;97370.75;4978732;28;20034;-85
2021/04/21 01:16:24;;;;;;;45.05;19.60;;;;;;;7.80;88.50;97395.28;4991908;28;20087;-83
2021/04/21 01:18:52;;;;;;;35.47;19.77;;;;;;;7.86;88.76;97386.97;4959556;28;20422;-85
2021/04/21 01:21:25;;;;;;;37.25;20.75;;;;;;;7.86;89.65;97394.97;4960176;28;20030;-84
2021/04/21 01:23:58;;;;;;;37.92;19.80;;;;;;;7.84;89.98;97386.22;4960335;28;20497;-84
2021/04/21 01:26:39;;;;;;;34.10;19.38;;;;;;;7.81;90.35;97405.00;4961972;28;20042;-84
2021/04/21 01:29:06;;;;;;;35.40;18.90;;;;;;;7.70;91.50;97402.03;4985009;28;20038;-84
2021/04/21 01:31:33;;;;;;;30.83;18.75;;;;;;;7.64;92.08;97407.69;4956574;28;20027;-85
2021/04/21 01:34:02;;;;;;;33.40;19.00;;;;;;;7.34;92.74;97393.31;4940817;28;20029;-84
2021/04/21 01:36:48;;;;;;;32.15;17.67;;;;;;;7.21;93.00;97394.88;4979104;28;20080;-84
2021/04/21 01:39:15;;;;;;;33.65;19.42;;;;;;;7.12;94.10;97387.38;4985360;28;20026;-85
2021/04/21 01:41:43;;;;;;;35.83;20.27;;;;;;;7.05;94.91;97387.69;4983231;28;20034;-84
2021/04/21 01:44:13;;;;;;;29.38;18.27;;;;;;;6.99;95.99;97387.13;4998255;28;20065;-83
2021/04/21 01:46:41;;;;;;;34.38;19.23;;;;;;;6.94;96.28;97378.53;4979933;28;20093;-85
2021/04/21 01:49:22;;;;;;;35.60;18.50;;;;;;;6.99;96.51;97397.75;4970919;28;20049;-85
2021/04/21 01:51:57;;;;;;;33.05;17.85;;;;;;;6.94;96.12;97383.84;4976747;28;20085;-85
2021/04/21 01:54:24;;;;;;;33.83;18.42;;;;;;;6.92;96.93;97397.19;4943074;28;20422;-85
2021/04/21 01:56:58;;;;;;;40.38;19.95;;;;;;;6.79;98.22;97380.16;4954419;28;20022;-85
2021/04/21 01:59:33;;;;;;;38.47;19.08;;;;;;;6.64;98.54;97380.06;4964000;28;20030;-83
2021/04/21 02:02:18;;;;;;;32.85;18.60;;;;;;;6.70;98.96;97399.22;4987918;28;20486;-84
2021/04/21 02:05:03;;;;;;;32.08;18.65;;;;;;;6.71;99.07;97387.63;4990297;28;20026;-84
2021/04/21 02:07:41;;;;;;;38.45;18.77;;;;;;;6.79;99.01;97395.25;4984989;28;20022;-84
2021/04/21 02:10:24;;;;;;;35.65;18.02;;;;;;;6.79;98.41;97384.63;5001056;28;20105;-83
2021/04/21 02:12:51;;;;;;;;;;;;;;;6.84;96.97;97390.56;4993380;28;20628;-83
2021/04/21 02:15:42;;;;;;;32.97;18.63;;;;;;;6.85;96.79;97387.84;4980752;28;19945;-84
2021/04/21 02:18:29;;;;;;;41.80;19.80;;;;;;;6.95;97.17;97401.53;4964893;28;20525;-84
2021/04/21 02:21:12;;;;;;;33.90;19.48;;;;;;;6.98;96.76;97393.41;4981998;28;20121;-84
2021/04/21 02:23:42;;;;;;;28.20;16.88;;;;;;;7.05;95.25;97377.03;4964989;28;20022;-85
2021/04/21 02:26:19;;;;;;;38.30;19.30;;;;;;;7.34;93.61;97393.31;4992552;28;20033;-85
2021/04/21 02:29:01;;;;;;;33.00;16.27;;;;;;;7.44;92.24;97399.91;5011824;28;20417;-85
2021/04/21 02:31:40;;;;;;;33.20;18.85;;;;;;;7.44;93.59;97389.25;4979053;28;20414;-85
2021/04/21 02:34:14;;;;;;;31.40;19.05;;;;;;;7.47;93.99;97397.06;5015840;28;20409;-85
2021/04/21 02:36:42;;;;;;;25.42;14.25;;;;;;;7.62;90.67;97394.47;4983080;28;20401;-85
2021/04/21 02:39:28;;;;;;;24.90;12.85;;;;;;;7.74;88.86;97386.78;4983406;28;20113;-84
2021/04/21 02:42:20;;;;;;;16.35;9.13;;;;;;;7.98;86.27;97374.78;5002596;28;20523;-84
2021/04/21 02:45:14;;;;;;;14.77;9.55;;;;;;;8.27;84.75;97397.19;4988022;28;20038;-83
2021/04/21 02:47:44;;;;;;;14.90;9.45;;;;;;;8.19;85.20;97385.13;5013968;28;20029;-84
2021/04/21 02:50:24;;;;;;;22.95;9.38;;;;;;;8.15;85.06;97378.25;4980304;28;20034;-84
2021/04/21 02:53:11;;;;;;;24.23;14.20;;;;;;;8.25;87.15;97410.56;4982048;28;20038;-84
2021/04/21 02:55:42;;;;;;;27.25;14.10;;;;;;;8.14;87.63;97416.50;4996088;28;20037;-85
2021/04/21 02:58:13;;;;;;;25.07;14.13;;;;;;;7.93;87.66;97407.00;4996257;28;20073;-84
2021/04/21 03:00:59;;;;;;;30.98;16.52;;;;;;;7.89;88.50;97421.44;4979961;28;20030;-83
2021/04/21 03:03:43;;;;;;;28.30;16.52;;;;;;;7.80;90.32;97424.59;4997552;28;20042;-84
2021/04/21 03:06:21;;;;;;;29.95;16.50;;;;;;;7.57;91.67;97403.63;4987597;28;20165;-84
2021/04/21 03:08:49;;;;;;;32.25;16.65;;;;;;;7.35;92.14;97387.91;4985444;28;20107;-84
2021/04/21 03:11:23;;;;;;;30.88;16.15;;;;;;;7.41;93.11;97408.88;4986835;28;20037;-84
2021/04/21 03:13:56;;;;;;;30.48;16.00;;;;;;;7.48;93.18;97428.91;4996563;28;20046;-85
2021/04/21 03:16:23;;;;;;;26.75;16.52;;;;;;;7.28;94.17;97404.28;4981528;28;20033;-84
2021/04/21 03:18:49;;;;;;;34.38;17.58;;;;;;;7.31;93.88;97430.72;4996636;28;20469;-84
2021/04/21 03:21:25;;;;;;;39.38;18.75;;;;;;;7.19;95.44;97432.22;4981935;28;20425;-84
2021/04/21 03:24:14;;;;;;;47.70;21.17;;;;;;;6.94;96.26;97403.31;4983028;28;20036;-84
2021/04/21 03:26:43;;;;;;;35.85;20.65;;;;;;;7.12;94.94;97425.47;4998720;28;20048;-84
2021/04/21 03:29:19;;;;;;;37.58;20.95;;;;;;;7.06;94.22;97412.47;5015337;28;20406;-85
2021/04/21 03:31:46;;;;;;;41.22;21.38;;;;;;;7.05;93.66;97400.97;4988619;28;20042;-85
2021/04/21 03:34:14;;;;;;;45.88;26.42;;;;;;;7.11;93.48;97409.59;4992337;28;20030;-85
2021/04/21 03:36:42;;;;;;;39.97;18.95;;;;;;;7.38;94.24;97437.47;4998896;28;20490;-84
2021/04/21 03:39:11;;;;;;;49.25;19.95;;;;;;;7.28;94.87;97422.91;5000103;28;20096;-85
2021/04/21 03:41:37;;;;;;;37.53;18.88;;;;;;;7.26;95.83;97432.78;4998415;28;20021;-85
2021/04/21 03:44:04;;;;;;;33.45;18.48;;;;;;;7.28;94.13;97430.88;4981944;28;20052;-84
2021/04/21 03:46:30;;;;;;;36.05;18.55;;;;;;;7.18;94.53;97416.31;4980991;28;20026;-85
2021/04/21 03:48:57;;;;;;;35.70;20.02;;;;;;;7.40;93.65;97441.75;5002200;28;20387;-85
2021/04/21 03:52:03;;;;;;;37.78;18.60;;;;;;;7.29;94.02;97406.00;4962269;28;20030;-84
2021/04/21 03:54:32;;;;;;;36.05;17.30;;;;;;;7.32;94.68;97403.19;5010410;28;20648;-85
2021/04/21 03:56:58;;;;;;;35.05;16.55;;;;;;;7.49;93.82;97421.78;4985081;28;20025;-85
2021/04/21 03:59:26;;;;;;;61.33;20.35;;;;;;;7.63;93.93;97427.25;4982115;28;20453;-85
2021/04/21 04:01:54;;;;;;;39.08;18.83;;;;;;;7.60;93.04;97433.59;4981842;28;20040;-84
2021/04/21 04:04:20;;;;;;;45.88;18.40;;;;;;;7.71;93.14;97443.69;4981325;28;20486;-83
2021/04/21 04:06:48;;;;;;;38.92;17.70;;;;;;;7.89;93.14;97457.84;5007802;28;20494;-85
2021/04/21 04:09:19;;;;;;;31.35;15.80;;;;;;;8.10;90.87;97468.22;4975693;28;20403;-83
2021/04/21 04:11:47;;;;;;;45.85;20.77;;;;;;;8.25;90.86;97473.66;4992979;28;20046;-83
2021/04/21 04:14:19;;;;;;;56.63;21.40;;;;;;;8.47;89.76;97468.91;4978715;28;20503;-82
2021/04/21 04:16:45;;;;;;;67.78;27.00;;;;;;;8.71;88.44;97467.56;5011339;28;20108;-82
2021/04/21 04:19:11;;;;;;;56.55;26.48;;;;;;;8.97;88.46;97469.63;4980483;28;20059;-81
2021/04/21 04:21:38;;;;;;;39.17;19.05;;;;;;;9.20;85.50;97471.84;4991172;28;20481;-79
2021/04/21 04:24:14;;;;;;;35.38;20.02;;;;;;;9.63;84.17;97466.66;4994309;28;20470;-79
2021/04/21 04:26:42;;;;;;;32.97;17.35;;;;;;;9.83;81.03;97477.00;4993662;28;20069;-80
2021/04/21 04:29:09;;;;;;;33.45;18.92;;;;;;;10.10;78.20;97475.34;4994279;28;20030;-80
2021/04/21 04:31:35;;;;;;;34.70;17.10;;;;;;;10.29;75.54;97475.09;5012153;28;20125;-80
2021/04/21 04:34:03;;;;;;;27.15;13.15;;;;;;;10.39;72.44;97468.22;4994236;28;20416;-79
2021/04/21 04:36:31;;;;;;;27.90;14.18;;;;;;;10.64;69.38;97475.56;4977939;28;20026;-81
2021/04/21 04:38:57;;;;;;;43.28;21.27;;;;;;;10.86;69.53;97473.22;4977715;28;20030;-81
2021/04/21 04:41:26;;;;;;;37.85;19.48;;;;;;;11.10;67.69;97486.88;4978264;28;20064;-81
2021/04/21 04:43:53;;;;;;;26.92;17.67;;;;;;;11.26;67.84;97479.53;4993591;28;20390;-81
2021/04/21 04:46:19;;;;;;;24.80;14.07;;;;;;;11.46;68.56;97494.28;4979199;28;20052;-81
2021/04/21 04:48:49;;;;;;;23.35;9.63;;;;;;;11.63;65.87;97494.88;5007279;28;20029;-80
2021/04/21 04:51:17;;;;;;;25.70;14.95;;;;;;;11.82;65.88;97490.03;4993935;28;20406;-81
2021/04/21 04:53:43;;;;;;;27.33;12.02;;;;;;;11.99;62.48;97480.00;4990528;28;20021;-81
2021/04/21 04:56:09;;;;;;;13.75;9.02;;;;;;;12.20;59.26;97499.97;5002199;28;20080;-81
2021/04/21 04:58:35;;;;;;;24.45;14.05;;;;;;;12.34;59.43;97503.38;4981228;28;20037;-80
2021/04/21 05:01:06;;;;;;;30.88;17.45;;;;;;;12.73;58.09;97498.88;4976208;28;20482;-80
2021/04/21 05:03:49;;;;;;;12.30;7.38;;;;;;;13.02;55.18;97489.56;4993852;28;20025;-79
2021/04/21 05:06:16;;;;;;;;;;;;;;;13.77;52.81;97509.09;4994452;28;20049;-79
2021/04/21 05:08:51;;;;;;;17.27;9.57;;;;;;;13.99;52.57;97510.06;4995784;28;19916;-81
2021/04/21 05:11:18;;;;;;;15.48;8.60;;;;;;;14.69;49.81;97511.81;4979071;28;20095;-81
2021/04/21 05:13:49;;;;;;;18.98;8.82;;;;;;;15.38;46.76;97518.78;4979830;28;20072;-84
2021/04/21 05:16:24;;;;;;;22.35;10.88;;;;;;;15.65;46.42;97525.50;4979918;28;20018;-83
2021/04/21 05:19:08;;;;;;;9.23;6.05;;;;;;;16.95;43.32;97524.19;4998209;28;20090;-85
2021/04/21 05:22:28;;;;;;;22.40;10.32;;;;;;;17.42;41.45;97521.81;5013084;28;20509;-85
2021/04/21 05:25:18;;;;;;;12.70;6.40;;;;;;;17.75;41.08;97522.34;4970027;28;20042;-86
2021/04/21 05:28:05;;;;;;;12.88;6.72;;;;;;;18.48;39.04;97537.22;5023781;28;20427;-85
2021/04/21 05:30:42;;;;;;;15.93;7.45;;;;;;;19.49;37.88;97534.69;4979577;28;20465;-85
2021/04/21 05:33:20;;;;;;;10.20;6.10;;;;;;;20.01;35.98;97539.38;4984541;28;20038;-84
2021/04/21 05:36:07;;;;;;;12.13;6.97;;;;;;;20.10;35.68;97524.00;5008839;28;20041;-85
2021/04/21 05:38:54;;;;;;;17.73;6.05;;;;;;;20.75;35.08;97541.78;5019936;28;20038;-85
2021/04/21 05:41:57;;;;;;;11.93;5.70;;;;;;;21.04;33.64;97546.91;4982893;28;20473;-87
2021/04/21 05:45:00;;;;;;;10.02;6.53;;;;;;;19.55;36.19;97539.50;5000471;28;20089;-85
2021/04/21 05:47:25;;;;;;;;;;;;;;;19.72;36.62;97546.81;5004841;28;20041;-85
2021/04/21 05:50:32;;;;;;;10.00;5.00;;;;;;;19.93;36.01;97543.88;5018800;28;19909;-86
2021/04/21 05:53:25;;;;;;;12.75;6.13;;;;;;;21.15;33.61;97538.50;5014130;28;20022;-86
2021/04/21 05:56:18;;;;;;;9.43;5.90;;;;;;;21.86;33.21;97546.31;4997920;28;20018;-86
2021/04/21 05:59:11;;;;;;;10.45;5.97;;;;;;;21.82;33.29;97543.06;4995401;28;20088;-87
2021/04/21 06:01:40;;;;;;;10.68;5.38;;;;;;;21.98;31.76;97532.28;4985775;28;20483;-88
2021/04/21 06:04:06;;;;;;;9.90;6.05;;;;;;;22.81;31.11;97551.28;4988257;28;20409;-86
2021/04/21 06:06:31;;;;;;;9.57;5.55;;;;;;;22.56;32.80;97536.78;4998504;28;20026;-88
2021/04/21 06:09:05;;;;;;;7.38;4.88;;;;;;;20.79;32.67;97547.75;4982232;28;20022;-87
2021/04/21 06:11:31;;;;;;;20.05;11.23;;;;;;;19.93;34.82;97558.25;4976406;28;20423;-87
2021/04/21 06:14:03;;;;;;;21.27;15.27;;;;;;;21.97;31.76;97557.78;4961478;28;20038;-88
2021/04/21 06:16:29;;;;;;;23.38;15.25;;;;;;;21.91;32.24;97553.00;4949749;28;20117;-88
2021/04/21 06:18:59;;;;;;;7.38;5.63;;;;;;;21.35;33.14;97558.19;4979828;28;20077;-88
2021/04/21 06:21:26;;;;;;;24.08;14.05;;;;;;;20.61;33.77;97565.97;4981713;28;20026;-87
2021/04/21 06:23:53;;;;;;;16.08;8.50;;;;;;;19.79;34.90;97558.78;4979981;28;20058;-86
2021/04/21 06:26:21;;;;;;;21.33;13.02;;;;;;;19.71;36.33;97575.00;4973163;28;20027;-87
2021/04/21 06:29:08;;;;;;;24.92;18.70;;;;;;;21.61;33.06;97561.72;4969234;28;20476;-86
2021/04/21 06:31:35;;;;;;;9.02;7.10;;;;;;;22.45;32.29;97556.19;4968272;28;20033;-88
2021/04/21 06:34:01;;;;;;;10.05;6.28;;;;;;;21.48;33.77;97566.75;4982668;28;20031;-87
2021/04/21 06:36:34;;;;;;;18.00;11.55;;;;;;;21.66;32.03;97555.78;4975882;28;20088;-87
2021/04/21 06:39:01;;;;;;;11.20;7.55;;;;;;;21.31;32.77;97554.06;5001040;28;20033;-86
2021/04/21 06:41:27;;;;;;;8.55;5.28;;;;;;;23.53;31.18;97569.47;4968270;28;20038;-86
2021/04/21 06:43:55;;;;;;;6.20;5.47;;;;;;;24.86;27.37;97559.19;4969015;28;20066;-86
2021/04/21 06:46:20;;;;;;;7.97;5.85;;;;;;;25.51;26.48;97528.44;4982565;28;20054;-86
2021/04/21 06:48:51;;;;;;;7.32;5.55;;;;;;;26.74;24.58;97546.66;4979936;28;20033;-88
2021/04/21 06:51:20;;;;;;;12.65;6.20;;;;;;;25.84;26.33;97525.13;5013767;28;20034;-86
2021/04/21 06:53:48;;;;;;;7.05;5.07;;;;;;;26.55;25.20;97550.88;4965538;28;20023;-86
2021/04/21 06:56:14;;;;;;;7.20;4.35;;;;;;;27.39;23.94;97552.75;4965174;28;20445;-88
2021/04/21 06:58:40;;;;;;;7.68;5.05;;;;;;;27.22;25.40;97556.84;4974360;28;20054;-86
2021/04/21 07:01:24;;;;;;;5.90;4.95;;;;;;;27.42;23.70;97538.63;4969303;28;20144;-89
2021/04/21 07:03:49;;;;;;;9.35;5.10;;;;;;;26.08;25.09;97540.44;4963000;28;20437;-88
2021/04/21 07:06:15;;;;;;;6.97;4.18;;;;;;;26.82;24.14;97552.06;4964206;28;20061;-88
2021/04/21 07:08:40;;;;;;;6.28;4.03;;;;;;;28.23;22.34;97548.00;4991330;28;20026;-87
2021/04/21 07:11:11;;;;;;;16.02;4.78;;;;;;;28.64;22.06;97547.88;4976647;28;20042;-88
2021/04/21 07:13:41;;;;;;;6.00;3.83;;;;;;;28.26;21.80;97538.47;4981900;28;20448;-89
2021/04/21 07:16:09;;;;;;;5.75;3.95;;;;;;;28.18;22.40;97544.19;4963882;28;20031;-81
2021/04/21 07:18:37;;;;;;;14.23;4.03;;;;;;;27.72;23.40;97563.13;4995488;28;20177;-86
2021/04/21 07:21:05;;;;;;;10.75;3.83;;;;;;;26.94;23.72;97553.22;4964413;28;20026;-86
2021/04/21 07:23:31;;;;;;;19.05;12.15;;;;;;;27.61;23.38;97552.72;4964376;28;20105;-87
2021/04/21 07:25:56;;;;;;;8.13;4.00;;;;;;;29.00;22.94;97561.34;4986652;28;20026;-86
2021/04/21 07:28:24;;;;;;;29.70;18.17;;;;;;;29.92;21.32;97558.56;4977050;28;20034;-86
2021/04/21 07:30:51;;;;;;;13.32;8.48;;;;;;;27.86;22.39;97549.28;4987578;28;20029;-88
2021/04/21 07:33:38;;;;;;;5.57;4.60;;;;;;;27.13;24.85;97557.19;4984749;28;20033;-88
2021/04/21 07:36:13;;;;;;;6.38;4.28;;;;;;;26.92;23.45;97558.91;4984490;28;20030;-86
2021/04/21 07:38:44;;;;;;;7.50;3.75;;;;;;;28.01;23.43;97546.38;4985425;28;20041;-90
2021/04/21 07:41:11;;;;;;;3.47;3.15;;;;;;;29.27;20.11;97548.44;4983430;28;20577;-85
2021/04/21 07:43:42;;;;;;;4.90;3.97;;;;;;;29.36;21.94;97534.25;4981148;28;20453;-82
2021/04/21 07:46:16;;;;;;;11.90;3.90;;;;;;;28.78;21.00;97565.34;4991652;28;20026;-81
2021/04/21 07:48:42;;;;;;;4.95;4.30;;;;;;;26.90;23.15;97558.25;4987431;28;20041;-81
2021/04/21 07:51:20;;;;;;;10.07;4.28;;;;;;;27.11;24.70;97571.13;4951184;28;20383;-82
2021/04/21 07:54:03;;;;;;;18.55;11.02;;;;;;;27.35;24.67;97572.56;4992985;28;20076;-81
2021/04/21 07:56:36;;;;;;;7.38;5.60;;;;;;;26.90;24.06;97569.25;4952257;28;20027;-81
2021/04/21 07:59:42;;;;;;;9.30;4.50;;;;;;;23.67;28.39;97574.19;4959837;28;20026;-79
2021/04/21 08:02:21;;;;;;;15.15;4.43;;;;;;;23.35;29.06;97577.00;4955061;28;20047;-81
2021/04/21 08:04:53;;;;;;;11.00;4.07;;;;;;;22.42;30.20;97587.38;4975502;28;20045;-81
2021/04/21 08:07:38;;;;;;;6.07;3.90;;;;;;;23.08;30.13;97580.94;4962760;28;20036;-81
2021/04/21 08:10:23;;;;;;;4.32;3.65;;;;;;;22.36;29.72;97582.59;4978424;28;20425;-81
2021/04/21 08:12:53;;;;;;;6.30;3.90;;;;;;;22.65;28.71;97574.81;4994323;28;20054;-80
2021/04/21 08:15:19;;;;;;;6.75;4.20;;;;;;;23.85;27.80;97580.28;4978399;28;20528;-80
2021/04/21 08:18:12;;;;;;;4.45;3.88;;;;;;;23.10;29.21;97579.75;4978474;28;20513;-81
2021/04/21 08:20:52;;;;;;;6.70;5.07;;;;;;;23.60;30.66;97587.72;4960398;28;20065;-81
2021/04/21 08:23:19;;;;;;;8.38;4.22;;;;;;;24.68;28.46;97591.47;4959154;28;20061;-81
2021/04/21 08:25:44;;;;;;;6.47;4.60;;;;;;;25.37;27.67;97586.81;4957428;28;20501;-82
2021/04/21 08:28:10;;;;;;;13.27;9.90;;;;;;;24.70;27.77;97578.47;4978174;28;20049;-81
2021/04/21 08:30:35;;;;;;;5.85;4.30;;;;;;;25.78;25.50;97563.41;4990902;28;20108;-89
2021/04/21 08:33:02;;;;;;;7.00;4.43;;;;;;;27.52;24.17;97575.91;4970999;28;20036;-88
2021/04/21 08:35:28;;;;;;;10.20;6.10;;;;;;;27.88;23.42;97557.31;4982896;28;20164;-89
2021/04/21 08:37:55;;;;;;;20.05;11.43;;;;;;;28.36;22.47;97572.78;4983664;28;20042;-91
2021/04/21 08:40:24;;;;;;;11.05;7.95;;;;;;;25.08;24.80;97558.31;4980590;28;20030;-90
2021/04/21 08:42:55;;;;;;;13.60;6.10;;;;;;;22.27;27.33;97564.50;4965728;28;20077;-89
2021/04/21 08:45:22;;;;;;;9.85;6.10;;;;;;;23.01;27.62;97580.78;4980977;28;20029;-91
2021/04/21 08:47:55;;;;;;;7.15;4.43;;;;;;;23.93;26.15;97563.88;4999691;28;20030;-88
2021/04/21 08:50:22;;;;;;;4.47;3.70;;;;;;;25.91;25.43;97554.50;5013672;28;20050;-89
2021/04/21 08:52:56;;;;;;;4.75;3.50;;;;;;;27.95;21.89;97559.06;4961463;28;20404;-88
2021/04/21 08:55:23;;;;;;;4.00;3.60;;;;;;;27.69;21.69;97555.28;4988815;28;20041;-89
2021/04/21 08:57:51;;;;;;;3.80;3.50;;;;;;;25.68;22.97;97521.75;4979666;28;20493;-91
2021/04/21 09:00:18;;;;;;;3.90;2.88;;;;;;;24.30;23.32;97483.03;4965996;28;20014;-88
2021/04/21 09:02:45;;;;;;;8.80;3.47;;;;;;;24.09;23.58;97511.81;4968126;28;20572;-89
2021/04/21 09:05:11;;;;;;;4.90;3.85;;;;;;;25.51;25.75;97544.88;4951133;28;20482;-87
2021/04/21 09:07:38;;;;;;;6.15;3.35;;;;;;;26.82;22.30;97535.59;4947273;28;20062;-89
2021/04/21 09:10:08;;;;;;;4.07;3.42;;;;;;;28.04;21.18;97536.88;4968719;28;20149;-89
2021/04/21 09:12:35;;;;;;;9.65;6.93;;;;;;;28.20;20.72;97523.66;4978229;28;20510;-89
2021/04/21 09:15:01;;;;;;;8.02;7.15;;;;;;;29.37;20.67;97515.78;4957729;28;20481;-83
2021/04/21 09:17:26;;;;;;;11.00;4.95;;;;;;;30.15;18.98;97523.00;4990650;28;20034;-84
2021/04/21 09:19:52;;;;;;;5.32;3.30;;;;;;;29.84;20.71;97512.72;4956881;28;20041;-84
2021/04/21 09:22:17;;;;;;;4.93;3.40;;;;;;;29.55;19.27;97503.03;4971083;28;20034;-83
2021/04/21 09:24:43;;;;;;;7.63;2.80;;;;;;;30.49;17.59;97506.09;4955183;28;20113;-84
2021/04/21 09:27:33;;;;;;;4.55;2.70;;;;;;;30.04;19.37;97496.13;4955870;28;20034;-82
2021/04/21 09:30:22;;;;;;;29.92;16.98;;;;;;;30.76;18.03;97503.19;4955756;28;20070;-81
2021/04/21 09:32:50;;;;;;;4.07;2.92;;;;;;;30.39;17.09;97483.66;4971301;28;20041;-81
2021/04/21 09:35:37;;;;;;;4.43;3.33;;;;;;;31.03;17.31;97497.25;4955561;28;20046;-81
2021/04/21 09:38:09;;;;;;;2.80;2.58;;;;;;;30.52;18.49;97489.09;4979815;28;20036;-82
2021/04/21 09:40:38;;;;;;;7.88;3.05;;;;;;;30.53;20.28;97489.94;4955016;28;20394;-82
2021/04/21 09:43:05;;;;;;;9.68;3.03;;;;;;;31.06;19.26;97484.91;4990455;28;20521;-84
2021/04/21 09:45:44;;;;;;;3.40;3.00;;;;;;;31.49;18.33;97485.81;4967555;28;20520;-83
2021/04/21 09:48:11;;;;;;;5.28;3.40;;;;;;;28.86;20.37;97472.31;4967704;28;20041;-82
2021/04/21 09:50:38;;;;;;;6.07;3.60;;;;;;;28.30;21.63;97484.72;4952086;28;20037;-83
2021/04/21 09:53:25;;;;;;;7.13;4.45;;;;;;;27.98;21.48;97494.53;4950293;28;20092;-82
2021/04/21 09:56:11;;;;;;;13.00;3.60;;;;;;;26.80;22.78;97485.50;4954922;28;20038;-82
2021/04/21 09:58:39;;;;;;;3.72;3.40;;;;;;;25.23;24.15;97490.72;4953772;28;20042;-82
2021/04/21 10:01:30;;;;;;;7.93;4.47;;;;;;;24.05;26.29;97509.66;4942290;28;20512;-81
2021/04/21 10:04:10;;;;;;;12.63;5.20;;;;;;;23.42;27.39;97510.63;4965023;28;20042;-81
2021/04/21 10:06:37;;;;;;;13.75;4.07;;;;;;;21.87;29.82;97513.47;4986878;28;20037;-81
2021/04/21 10:09:03;;;;;;;9.98;4.05;;;;;;;22.81;29.60;97518.56;4971389;28;20036;-81
2021/04/21 10:11:29;;;;;;;9.68;2.90;;;;;;;21.88;29.78;97533.38;4972765;28;20030;-81
2021/04/21 10:13:57;;;;;;;14.20;10.15;;;;;;;22.27;30.75;97547.31;4989290;28;20374;-81
2021/04/21 10:16:24;;;;;;;7.50;3.38;;;;;;;23.47;29.73;97548.34;4974367;28;20038;-81
2021/04/21 10:18:50;;;;;;;7.65;3.85;;;;;;;24.02;28.93;97557.31;5005552;28;20061;-82
2021/04/21 10:21:17;;;;;;;9.07;4.18;;;;;;;25.00;27.48;97550.19;4990535;28;20034;-83
2021/04/21 10:23:44;;;;;;;4.78;3.80;;;;;;;26.30;25.91;97542.16;4976966;28;20034;-81
2021/04/21 10:26:11;;;;;;;12.18;7.60;;;;;;;28.36;24.14;97542.50;4994094;28;20406;-81
2021/04/21 10:28:38;;;;;;;6.30;3.35;;;;;;;28.70;23.79;97529.75;4977725;28;20032;-81
2021/04/21 10:31:09;;;;;;;6.82;3.38;;;;;;;30.81;21.13;97530.97;4977947;28;20026;-82
2021/04/21 10:33:35;;;;;;;13.38;3.92;;;;;;;30.50;21.95;97526.28;4994122;28;20104;-81
2021/04/21 10:36:01;;;;;;;10.07;3.55;;;;;;;31.34;20.98;97520.38;5010374;28;20489;-82
2021/04/21 10:38:27;;;;;;;5.95;2.65;;;;;;;31.76;19.62;97507.63;4977243;28;20033;-82
2021/04/21 10:41:27;;;;;;;3.80;3.15;;;;;;;31.03;20.82;97516.59;4993603;28;20521;-82
2021/04/21 10:44:11;;;;;;;9.93;5.28;;;;;;;30.58;21.66;97515.81;4953530;28;20030;-79
2021/04/21 10:46:59;;;;;;;3.80;3.40;;;;;;;30.53;20.79;97512.03;4979529;28;20053;-79
2021/04/21 10:49:43;;;;;;;7.63;3.38;;;;;;;29.23;23.18;97512.16;4991139;28;20034;-79
2021/04/21 10:52:20;;;;;;;14.60;3.85;;;;;;;29.39;22.88;97522.78;5001945;28;20038;-79
2021/04/21 10:54:47;;;;;;;36.92;5.05;;;;;;;29.74;25.51;97517.00;4994431;28;20034;-80
2021/04/21 10:57:22;;;;;;;5.68;4.25;;;;;;;29.75;24.57;97519.50;4986464;28;20512;-80
2021/04/21 11:00:10;;;;;;;5.90;4.50;;;;;;;29.13;25.48;97519.19;4993639;28;20031;-79
2021/04/21 11:03:02;;;;;;;6.28;3.88;;;;;;;29.99;24.39;97520.78;5007822;28;20025;-79
2021/04/21 11:05:37;;;;;;;5.45;3.40;;;;;;;31.86;20.76;97507.97;5010747;28;20550;-80
2021/04/21 11:08:09;;;;;;;4.50;3.60;;;;;;;31.99;19.98;97503.13;5011113;28;20036;-80
2021/04/21 11:11:09;;;;;;;3.70;2.80;;;;;;;31.28;21.86;97501.94;4990700;28;20808;-85
2021/04/21 11:13:35;;;;;;;5.18;3.58;;;;;;;30.97;19.38;97483.50;5003681;28;20398;-92
2021/04/21 11:16:02;;;;;;;3.05;2.75;;;;;;;27.70;21.97;97471.78;5005468;28;20033;-92
2021/04/21 11:18:35;;;;;;;3.20;2.90;;;;;;;27.18;22.87;97480.53;4989750;28;20793;-84
2021/04/21 11:21:12;;;;;;;2.85;2.50;;;;;;;27.60;22.01;97482.28;4986497;28;20044;-79
2021/04/21 11:23:55;;;;;;;3.15;2.85;;;;;;;28.14;23.05;97488.72;4997542;28;20109;-79
2021/04/21 11:26:41;;;;;;;10.82;2.90;;;;;;;29.15;22.19;97482.06;5000544;28;20026;-83
2021/04/21 11:29:19;;;;;;;19.58;10.07;;;;;;;29.89;20.07;97479.00;4998142;28;20421;-85
2021/04/21 11:31:45;;;;;;;5.45;2.80;;;;;;;31.30;19.54;97475.75;4995083;28;20030;-82
2021/04/21 11:34:36;;;;;;;6.13;3.20;;;;;;;31.08;19.06;97463.41;5014457;28;20038;-80
2021/04/21 11:37:15;;;;;;;4.05;3.10;;;;;;;29.41;20.88;97451.72;4980151;28;20030;-81
2021/04/21 11:42:26;;;;;;;3.00;2.70;;;;;;;28.37;20.07;97456.16;5012090;28;20041;-84
2021/04/21 11:45:13;;;;;;;7.07;4.38;;;;;;;27.76;21.15;97477.31;4990321;28;20034;-84
2021/04/21 11:47:41;;;;;;;4.45;2.80;;;;;;;24.56;24.72;97470.66;4994878;28;20030;-81
2021/04/21 11:50:16;;;;;;;5.82;3.25;;;;;;;23.90;25.61;97474.03;5013987;28;20535;-85
2021/04/21 11:52:56;;;;;;;6.63;4.53;;;;;;;21.94;29.35;97492.75;4993230;28;20858;-86
2021/04/21 11:55:23;;;;;;;12.65;4.60;;;;;;;20.95;32.40;97521.50;5003768;28;20026;-81
2021/04/21 11:58:13;;;;;;;17.23;3.90;;;;;;;19.77;37.03;97544.53;4985290;28;20079;-81
2021/04/21 12:00:51;;;;;;;7.28;3.83;;;;;;;18.84;39.95;97557.28;4976937;28;20417;-81